createdAt,value
2022-10-11T00:02:00.242Z,100425.47
2022-10-11T00:04:27.796Z,100423.81
2022-10-11T00:06:55.090Z,100421.19
2022-10-11T00:09:22.541Z,100424.69
2022-10-11T00:11:50.088Z,100422.09
2022-10-11T00:14:17.409Z,100412.41
2022-10-11T00:16:44.751Z,100418.56
2022-10-11T00:19:12.302Z,100411.59
2022-10-11T00:21:39.612Z,100416.81
2022-10-11T00:24:07.034Z,100422.09
2022-10-11T00:26:34.703Z,100418.62
2022-10-11T00:29:02.236Z,100411.72
2022-10-11T00:31:34.687Z,100403.03
2022-10-11T00:34:03.350Z,100404.84
2022-10-11T00:36:30.704Z,100416.25
2022-10-11T00:38:59.006Z,100411.81
2022-10-11T00:41:26.608Z,100406.56
2022-10-11T00:44:29.644Z,100405.75
2022-10-11T00:47:09.537Z,100403.25
2022-10-11T00:49:59.915Z,100404.94
2022-10-11T00:52:33.426Z,100396.22
2022-10-11T00:55:14.757Z,100396.28
2022-10-11T00:57:44.371Z,100398.16
2022-10-11T01:00:13.041Z,100399.03
2022-10-11T01:02:40.977Z,100396.41
2022-10-11T01:05:28.735Z,100404.34
2022-10-11T01:07:59.283Z,100403.59
2022-10-11T01:10:27.801Z,100403.53
2022-10-11T01:13:40.508Z,100405.38
2022-10-11T01:16:15.549Z,100408.00
2022-10-11T01:19:27.320Z,100401.06
2022-10-11T01:22:06.567Z,100400.22
2022-10-11T01:24:44.791Z,100396.69
2022-10-11T01:27:38.856Z,100393.22
2022-10-11T01:30:22.630Z,100393.28
2022-10-11T01:33:05.221Z,100391.53
2022-10-11T01:35:42.750Z,100391.59
2022-10-11T01:38:14.548Z,100388.12
2022-10-11T01:40:55.448Z,100380.16
2022-10-11T01:43:23.964Z,100385.38
2022-10-11T01:45:52.625Z,100379.31
2022-10-11T01:48:20.301Z,100377.62
2022-10-11T01:50:50.697Z,100374.22
2022-10-11T01:53:22.920Z,100381.19
2022-10-11T01:55:55.594Z,100386.37
2022-10-11T01:58:32.459Z,100386.41
2022-10-11T02:01:44.864Z,100381.25
2022-10-11T02:04:19.473Z,100376.03
2022-10-11T02:07:00.815Z,100379.53
2022-10-11T02:09:43.184Z,100377.78
2022-10-11T02:12:14.468Z,100377.72
2022-10-11T02:14:44.288Z,100373.41
2022-10-11T02:17:17.980Z,100364.72
2022-10-11T02:19:48.172Z,100371.66
2022-10-11T02:22:19.500Z,100372.56
2022-10-11T02:24:50.364Z,100376.03
2022-10-11T02:27:20.588Z,100380.44
2022-10-11T02:29:48.473Z,100375.16
2022-10-11T02:32:17.661Z,100371.75
2022-10-11T02:34:49.116Z,100378.69
2022-10-11T02:37:27.876Z,100378.78
2022-10-11T02:40:07.237Z,100370.03
2022-10-11T02:42:38.934Z,100372.63
2022-10-11T02:45:13.022Z,100385.75
2022-10-11T02:47:41.491Z,100379.66
2022-10-11T02:50:11.504Z,100384.91
2022-10-11T02:52:38.884Z,100386.63
2022-10-11T02:55:07.512Z,100391.88
2022-10-11T02:57:34.815Z,100392.78
2022-10-11T03:00:02.400Z,100383.13
2022-10-11T03:02:30.039Z,100390.13
2022-10-11T03:04:57.583Z,100384.00
2022-10-11T03:07:24.887Z,100384.88
2022-10-11T03:09:52.524Z,100390.97
2022-10-11T03:12:19.876Z,100383.13
2022-10-11T03:14:47.188Z,100383.19
2022-10-11T03:17:35.140Z,100381.41
2022-10-11T03:20:02.074Z,100381.38
2022-10-11T03:22:29.632Z,100392.78
2022-10-11T03:25:02.513Z,100386.69
2022-10-11T03:27:32.714Z,100383.13
2022-10-11T03:30:00.298Z,100389.25
2022-10-11T03:32:27.621Z,100387.47
2022-10-11T03:34:55.261Z,100405.03
2022-10-11T03:37:22.609Z,100404.09
2022-10-11T03:39:50.265Z,100399.78
2022-10-11T03:42:17.907Z,100405.88
2022-10-11T03:44:45.245Z,100403.25
2022-10-11T03:47:12.760Z,100409.34
2022-10-11T03:49:43.614Z,100411.06
2022-10-11T03:52:11.697Z,100405.84
2022-10-11T03:54:39.000Z,100409.31
2022-10-11T03:57:07.239Z,100417.13
2022-10-11T03:59:34.548Z,100409.31
2022-10-11T04:02:02.008Z,100402.34
2022-10-11T04:04:29.633Z,100411.88
2022-10-11T04:06:57.020Z,100407.53
2022-10-11T04:09:24.453Z,100411.91
2022-10-11T04:11:52.106Z,100414.50
2022-10-11T04:14:19.408Z,100408.34
2022-10-11T04:16:46.715Z,100404.00
2022-10-11T04:19:14.271Z,100411.88
2022-10-11T04:21:41.562Z,100414.50
2022-10-11T04:24:11.103Z,100417.03
2022-10-11T04:26:38.653Z,100417.09
2022-10-11T04:29:06.119Z,100412.75
2022-10-11T04:31:33.441Z,100419.63
2022-10-11T04:34:01.135Z,100410.09
2022-10-11T04:36:28.509Z,100410.09
2022-10-11T04:38:56.234Z,100410.13
2022-10-11T04:41:23.823Z,100403.06
2022-10-11T04:43:51.116Z,100403.13
2022-10-11T04:46:18.414Z,100403.88
2022-10-11T04:48:45.971Z,100408.25
2022-10-11T04:51:13.255Z,100420.53
2022-10-11T04:53:40.548Z,100411.81
2022-10-11T04:56:11.537Z,100410.91
2022-10-11T04:58:40.944Z,100410.94
2022-10-11T05:01:09.699Z,100415.34
2022-10-11T05:03:37.746Z,100415.31
2022-10-11T05:06:06.305Z,100419.66
2022-10-11T05:08:34.125Z,100410.09
2022-10-11T05:11:04.027Z,100411.00
2022-10-11T05:13:32.059Z,100419.63
2022-10-11T05:15:59.622Z,100424.88
2022-10-11T05:18:27.105Z,100420.59
2022-10-11T05:21:23.838Z,100421.47
2022-10-11T05:23:52.855Z,100420.56
2022-10-11T05:26:20.448Z,100429.28
2022-10-11T05:28:48.150Z,100431.94
2022-10-11T05:31:16.233Z,100426.66
2022-10-11T05:33:43.577Z,100428.41
2022-10-11T05:36:11.404Z,100432.75
2022-10-11T05:38:39.455Z,100442.28
2022-10-11T05:41:09.181Z,100446.63
2022-10-11T05:43:36.516Z,100451.81
2022-10-11T05:46:04.363Z,100443.91
2022-10-11T05:48:31.805Z,100450.03
2022-10-11T05:51:03.537Z,100458.72
2022-10-11T05:53:31.452Z,100460.47
2022-10-11T05:55:59.546Z,100458.75
2022-10-11T05:58:26.863Z,100451.72
2022-10-11T06:00:56.696Z,100462.16
2022-10-11T06:03:24.304Z,100463.06
2022-10-11T06:05:56.501Z,100466.50
2022-10-11T06:08:24.665Z,100467.41
2022-10-11T06:10:52.044Z,100463.84
2022-10-11T06:13:19.330Z,100466.38
2022-10-11T06:15:46.875Z,100471.59
2022-10-11T06:18:15.150Z,100468.91
2022-10-11T06:20:42.464Z,100471.50
2022-10-11T06:23:10.035Z,100473.28
2022-10-11T06:25:37.345Z,100473.34
2022-10-11T06:28:04.723Z,100480.19
2022-10-11T06:30:32.292Z,100482.91
2022-10-11T06:33:04.472Z,100472.31
2022-10-11T06:35:32.470Z,100483.63
2022-10-11T06:37:59.765Z,100484.41
2022-10-11T06:40:27.104Z,100474.72
2022-10-11T06:42:54.753Z,100480.81
2022-10-11T06:45:22.278Z,100480.78
2022-10-11T06:47:49.571Z,100491.19
2022-10-11T06:50:25.879Z,100490.28
2022-10-11T06:53:03.147Z,100487.50
2022-10-11T06:55:31.908Z,100493.56
2022-10-11T06:57:59.193Z,100484.28
2022-10-11T07:00:26.851Z,100482.44
2022-10-11T07:02:54.429Z,100486.75
2022-10-11T07:05:21.727Z,100484.03
2022-10-11T07:07:49.015Z,100494.44
2022-10-11T07:10:16.633Z,100496.84
2022-10-11T07:12:44.868Z,100494.06
2022-10-11T07:15:12.270Z,100495.66
2022-10-11T07:17:39.856Z,100498.91
2022-10-11T07:20:07.564Z,100498.84
2022-10-11T07:22:34.988Z,100501.31
2022-10-11T07:25:02.958Z,100498.47
2022-10-11T07:27:30.252Z,100500.06
2022-10-11T07:29:57.681Z,100497.44
2022-10-11T07:32:25.288Z,100498.22
2022-10-11T07:34:52.550Z,100500.72
2022-10-11T07:37:20.299Z,100502.34
2022-10-11T07:39:49.147Z,100493.41
2022-10-11T07:42:16.430Z,100494.91
2022-10-11T07:44:43.768Z,100490.59
2022-10-11T07:47:11.659Z,100498.88
2022-10-11T07:49:38.996Z,100500.84
2022-10-11T07:52:06.331Z,100496.09
2022-10-11T07:54:33.868Z,100498.53
2022-10-11T07:57:01.168Z,100503.88
2022-10-11T07:59:28.557Z,100500.25
2022-10-11T08:01:56.188Z,100501.69
2022-10-11T08:04:23.774Z,100502.41
2022-10-11T08:06:53.304Z,100503.06
2022-10-11T08:09:20.862Z,100497.84
2022-10-11T08:11:48.445Z,100502.66
2022-10-11T08:14:15.821Z,100507.53
2022-10-11T08:16:43.098Z,100508.47
2022-10-11T08:19:10.829Z,100509.97
2022-10-11T08:21:38.149Z,100502.06
2022-10-11T08:24:06.086Z,100499.84
2022-10-11T08:26:33.692Z,100497.50
2022-10-11T08:29:04.343Z,100503.31
2022-10-11T08:31:32.862Z,100493.56
2022-10-11T08:34:00.870Z,100509.16
2022-10-11T08:36:28.223Z,100496.09
2022-10-11T08:38:55.527Z,100498.47
2022-10-11T08:41:27.161Z,100497.44
2022-10-11T08:43:57.519Z,100496.28
2022-10-11T08:46:28.724Z,100498.88
2022-10-11T08:48:56.135Z,100490.81
2022-10-11T08:51:38.540Z,100495.91
2022-10-11T08:54:31.170Z,100490.34
2022-10-11T08:56:58.621Z,100493.63
2022-10-11T08:59:35.089Z,100495.63
2022-10-11T09:02:11.151Z,100497.81
2022-10-11T09:04:39.229Z,100497.25
2022-10-11T09:07:44.916Z,100497.75
2022-10-11T09:10:31.193Z,100499.50
2022-10-11T09:13:31.442Z,100491.00
2022-10-11T09:16:10.916Z,100494.59
2022-10-11T09:18:47.136Z,100499.97
2022-10-11T09:21:48.364Z,100498.78
2022-10-11T09:24:18.627Z,100494.91
2022-10-11T09:26:52.134Z,100505.00
2022-10-11T09:29:28.736Z,100505.25
2022-10-11T09:31:57.323Z,100507.94
2022-10-11T09:34:27.605Z,100504.53
2022-10-11T09:37:03.766Z,100508.06
2022-10-11T09:39:36.661Z,100510.31
2022-10-11T09:42:09.611Z,100509.47
2022-10-11T09:44:49.583Z,100509.72
2022-10-11T09:47:27.542Z,100508.53
2022-10-11T09:50:06.496Z,100507.13
2022-10-11T09:52:33.866Z,100498.03
2022-10-11T09:55:03.264Z,100507.66
2022-10-11T09:57:32.599Z,100509.59
2022-10-11T10:00:01.717Z,100504.78
2022-10-11T10:02:48.768Z,100502.78
2022-10-11T10:05:27.639Z,100506.78
2022-10-11T10:08:09.848Z,100501.91
2022-10-11T10:10:38.974Z,100496.12
2022-10-11T10:13:29.085Z,100494.34
2022-10-11T10:16:01.158Z,100496.19
2022-10-11T10:18:37.377Z,100496.56
2022-10-11T10:21:09.172Z,100498.16
2022-10-11T10:23:37.336Z,100492.69
2022-10-11T10:26:17.203Z,100484.72
2022-10-11T10:29:04.073Z,100488.44
2022-10-11T10:32:14.240Z,100486.69
2022-10-11T10:35:37.228Z,100492.75
2022-10-11T10:38:26.358Z,100482.25
2022-10-11T10:40:58.030Z,100489.91
2022-10-11T10:43:36.214Z,100488.91
2022-10-11T10:46:18.091Z,100488.44
2022-10-11T10:49:23.601Z,100494.56
2022-10-11T10:51:50.899Z,100489.69
2022-10-11T10:54:24.835Z,100477.59
2022-10-11T10:57:31.567Z,100482.44
2022-10-11T11:00:04.157Z,100483.41
2022-10-11T11:02:59.590Z,100478.78
2022-10-11T11:05:33.818Z,100480.31
2022-10-11T11:08:15.336Z,100476.28
2022-10-11T11:10:56.046Z,100480.53
2022-10-11T11:13:41.857Z,100474.84
2022-10-11T11:16:26.345Z,100475.88
2022-10-11T11:18:57.139Z,100475.97
2022-10-11T11:21:44.896Z,100470.41
2022-10-11T11:25:05.844Z,100478.25
2022-10-11T11:27:40.714Z,100480.91
2022-10-11T11:30:17.275Z,100471.75
2022-10-11T11:33:05.407Z,100472.81
2022-10-11T11:35:53.815Z,100465.25
2022-10-11T11:38:40.702Z,100467.53
2022-10-11T11:41:14.649Z,100466.81
2022-10-11T11:44:25.112Z,100468.56
2022-10-11T11:47:01.688Z,100458.47
2022-10-11T11:49:34.334Z,100460.22
2022-10-11T11:52:04.301Z,100461.81
2022-10-11T11:55:13.139Z,100456.81
2022-10-11T11:57:52.459Z,100458.75
2022-10-11T12:00:22.490Z,100452.91
2022-10-11T12:02:56.248Z,100461.81
2022-10-11T12:05:27.487Z,100451.84
2022-10-11T12:08:08.314Z,100459.69
2022-10-11T12:10:35.692Z,100448.66
2022-10-11T12:13:09.284Z,100445.34
2022-10-11T12:15:37.010Z,100443.56
2022-10-11T12:18:15.485Z,100450.41
2022-10-11T12:20:44.014Z,100448.81
2022-10-11T12:23:29.969Z,100444.44
2022-10-11T12:26:19.274Z,100439.63
2022-10-11T12:29:05.847Z,100436.09
2022-10-11T12:31:35.830Z,100432.38
2022-10-11T12:34:09.523Z,100432.25
2022-10-11T12:36:39.520Z,100432.16
2022-10-11T12:39:19.314Z,100424.97
2022-10-11T12:41:49.233Z,100427.75
2022-10-11T12:44:26.269Z,100429.19
2022-10-11T12:46:53.773Z,100426.28
2022-10-11T12:49:31.071Z,100431.97
2022-10-11T12:52:05.594Z,100431.78
2022-10-11T12:54:45.258Z,100427.06
2022-10-11T12:57:49.597Z,100422.91
2022-10-11T13:00:32.506Z,100424.41
2022-10-11T13:03:05.332Z,100416.03
2022-10-11T13:05:43.211Z,100419.09
2022-10-11T13:08:16.660Z,100426.69
2022-10-11T13:10:45.351Z,100427.94
2022-10-11T13:13:24.966Z,100429.78
2022-10-11T13:15:54.529Z,100431.25
2022-10-11T13:18:24.230Z,100425.91
2022-10-11T13:20:51.527Z,100423.97
2022-10-11T13:23:25.069Z,100422.78
2022-10-11T13:25:52.957Z,100427.03
2022-10-11T13:28:21.343Z,100424.47
2022-10-11T13:30:54.983Z,100424.84
2022-10-11T13:33:32.113Z,100423.91
2022-10-11T13:35:59.855Z,100428.53
2022-10-11T13:38:34.507Z,100434.03
2022-10-11T13:41:04.695Z,100435.88
2022-10-11T13:43:32.602Z,100434.03
2022-10-11T13:46:01.545Z,100431.50
2022-10-11T13:48:31.850Z,100425.09
2022-10-11T13:51:07.158Z,100427.34
2022-10-11T13:53:34.602Z,100424.34
2022-10-11T13:56:05.507Z,100430.44
2022-10-11T13:58:40.391Z,100431.56
2022-10-11T14:01:17.315Z,100434.94
2022-10-11T14:03:48.479Z,100432.47
2022-10-11T14:06:15.811Z,100430.63
2022-10-11T14:08:44.435Z,100433.44
2022-10-11T14:11:13.516Z,100431.84
2022-10-11T14:13:44.391Z,100434.38
2022-10-11T14:16:21.023Z,100428.22
2022-10-11T14:18:50.712Z,100430.88
2022-10-11T14:21:35.432Z,100438.16
2022-10-11T14:24:08.047Z,100435.38
2022-10-11T14:26:42.215Z,100431.56
2022-10-11T14:29:17.983Z,100443.59
2022-10-11T14:31:45.563Z,100439.75
2022-10-11T14:34:20.883Z,100434.97
2022-10-11T14:36:49.038Z,100444.09
2022-10-11T14:39:19.341Z,100442.78
2022-10-11T14:41:47.098Z,100446.38
2022-10-11T14:44:16.621Z,100447.50
2022-10-11T14:46:45.461Z,100442.66
2022-10-11T14:49:22.060Z,100441.91
2022-10-11T14:51:51.026Z,100443.78
2022-10-11T14:54:24.180Z,100445.59
2022-10-11T14:56:53.256Z,100445.88
2022-10-11T14:59:22.991Z,100444.19
2022-10-11T15:01:54.232Z,100447.81
2022-10-11T15:04:23.635Z,100444.47
2022-10-11T15:06:52.172Z,100450.66
2022-10-11T15:09:23.123Z,100440.13
2022-10-11T15:11:52.628Z,100444.37
2022-10-11T15:14:20.162Z,100449.00
2022-10-11T15:16:47.635Z,100437.56
2022-10-11T15:19:17.720Z,100450.81
2022-10-11T15:21:45.583Z,100457.09
2022-10-11T15:24:13.091Z,100460.06
2022-10-11T15:26:40.817Z,100460.31
2022-10-11T15:29:11.719Z,100461.19
2022-10-11T15:31:39.572Z,100466.31
2022-10-11T15:34:07.265Z,100454.34
2022-10-11T15:36:34.624Z,100454.41
2022-10-11T15:39:01.914Z,100463.41
2022-10-11T15:41:29.490Z,100464.47
2022-10-11T15:43:56.824Z,100468.81
2022-10-11T15:46:24.168Z,100467.00
2022-10-11T15:48:52.256Z,100467.91
2022-10-11T15:51:19.595Z,100473.34
2022-10-11T15:53:47.042Z,100474.22
2022-10-11T15:56:18.611Z,100478.81
2022-10-11T15:58:46.089Z,100470.19
2022-10-11T16:01:19.358Z,100474.87
2022-10-11T16:03:48.979Z,100479.69
2022-10-11T16:06:17.368Z,100479.03
2022-10-11T16:08:44.695Z,100486.78
2022-10-11T16:11:12.691Z,100488.72
2022-10-11T16:13:40.404Z,100486.22
2022-10-11T16:16:09.681Z,100493.25
2022-10-11T16:18:37.876Z,100492.97
2022-10-11T16:21:08.994Z,100495.91
2022-10-11T16:23:38.207Z,100494.53
2022-10-11T16:26:08.556Z,100497.56
2022-10-11T16:28:36.443Z,100509.22
2022-10-11T16:31:08.545Z,100507.72
2022-10-11T16:33:45.240Z,100510.38
2022-10-11T16:36:36.463Z,100514.94
2022-10-11T16:39:07.794Z,100514.06
2022-10-11T16:41:35.217Z,100519.34
2022-10-11T16:44:03.429Z,100527.91
2022-10-11T16:46:32.499Z,100523.69
2022-10-11T16:48:59.842Z,100532.34
2022-10-11T16:51:27.163Z,100528.75
2022-10-11T16:53:54.908Z,100530.00
2022-10-11T16:56:24.103Z,100526.69
2022-10-11T16:58:54.237Z,100532.28
2022-10-11T17:01:22.031Z,100525.19
2022-10-11T17:03:50.002Z,100530.62
2022-10-11T17:06:18.257Z,100536.03
2022-10-11T17:08:46.268Z,100528.94
2022-10-11T17:11:13.659Z,100535.16
2022-10-11T17:13:40.961Z,100539.94
2022-10-11T17:16:08.919Z,100544.50
2022-10-11T17:18:36.593Z,100541.03
2022-10-11T17:21:06.630Z,100544.66
2022-10-11T17:23:35.514Z,100544.50
2022-10-11T17:26:11.215Z,100544.19
2022-10-11T17:28:39.422Z,100553.78
2022-10-11T17:31:07.817Z,100556.47
2022-10-11T17:33:35.632Z,100558.44
2022-10-11T17:36:13.203Z,100556.59
2022-10-11T17:38:40.503Z,100560.78
2022-10-11T17:41:08.976Z,100559.06
2022-10-11T17:43:37.133Z,100561.75
2022-10-11T17:46:06.332Z,100560.84
2022-10-11T17:48:36.522Z,100560.88
2022-10-11T17:51:07.382Z,100559.06
2022-10-11T17:53:35.622Z,100561.66
2022-10-11T17:56:07.832Z,100553.72
2022-10-11T17:58:35.592Z,100565.94
2022-10-11T18:01:08.887Z,100562.53
2022-10-11T18:03:37.319Z,100566.03
2022-10-11T18:06:06.449Z,100560.69
2022-10-11T18:08:39.981Z,100555.44
2022-10-11T18:11:13.096Z,100565.84
2022-10-11T18:13:45.564Z,100559.75
2022-10-11T18:16:14.734Z,100565.84
2022-10-11T18:18:42.369Z,100559.63
2022-10-11T18:21:10.041Z,100561.44
2022-10-11T18:23:38.338Z,100570.09
2022-10-11T18:26:13.555Z,100572.81
2022-10-11T18:28:41.347Z,100579.75
2022-10-11T18:31:13.335Z,100573.44
2022-10-11T18:33:42.264Z,100571.78
2022-10-11T18:36:10.953Z,100567.28
2022-10-11T18:38:39.653Z,100567.59
2022-10-11T18:41:08.814Z,100573.84
2022-10-11T18:43:36.984Z,100573.06
2022-10-11T18:46:12.623Z,100573.28
2022-10-11T18:48:41.996Z,100569.72
2022-10-11T18:51:12.404Z,100569.50
2022-10-11T18:53:40.314Z,100563.34
2022-10-11T18:56:09.610Z,100560.84
2022-10-11T18:58:38.832Z,100572.50
2022-10-11T19:01:17.631Z,100571.53
2022-10-11T19:04:52.525Z,100555.28
2022-10-11T19:07:20.901Z,100555.28
2022-10-11T19:09:49.471Z,100568.31
2022-10-11T19:12:17.280Z,100570.13
2022-10-11T19:14:44.841Z,100565.00
2022-10-11T19:17:12.664Z,100573.66
2022-10-11T19:19:39.975Z,100581.72
2022-10-11T19:22:07.565Z,100583.59
2022-10-11T19:24:34.900Z,100577.62
2022-10-11T19:27:03.119Z,100581.12
2022-10-11T19:29:31.429Z,100582.94
2022-10-11T19:32:00.104Z,100591.78
2022-10-11T19:34:28.047Z,100586.75
2022-10-11T19:36:56.510Z,100591.03
2022-10-11T19:39:24.810Z,100590.19
2022-10-11T19:41:52.579Z,100580.69
2022-10-11T19:44:20.331Z,100583.28
2022-10-11T19:46:52.474Z,100591.12
2022-10-11T19:49:25.715Z,100583.19
2022-10-11T19:51:53.736Z,100580.75
2022-10-11T19:54:21.295Z,100584.28
2022-10-11T19:56:48.704Z,100582.50
2022-10-11T19:59:16.268Z,100591.34
2022-10-11T20:01:47.914Z,100587.62
2022-10-11T20:04:39.594Z,100588.53
2022-10-11T20:07:04.497Z,100594.91
2022-10-11T20:09:32.058Z,100598.25
2022-10-11T20:11:59.393Z,100600.97
2022-10-11T20:14:26.709Z,100599.31
2022-10-11T20:16:54.268Z,100606.25
2022-10-11T20:19:26.202Z,100606.47
2022-10-11T20:21:55.447Z,100604.72
2022-10-11T20:24:23.010Z,100601.25
2022-10-11T20:26:50.302Z,100602.09
2022-10-11T20:29:18.057Z,100608.25
2022-10-11T20:31:45.350Z,100608.22
2022-10-11T20:34:13.232Z,100611.81
2022-10-11T20:36:41.209Z,100603.16
2022-10-11T20:39:09.636Z,100600.72
2022-10-11T20:41:39.975Z,100605.00
2022-10-11T20:44:08.969Z,100608.38
2022-10-11T20:46:38.311Z,100605.75
2022-10-11T20:49:08.303Z,100615.47
2022-10-11T20:51:37.185Z,100613.13
2022-10-11T20:54:04.927Z,100604.34
2022-10-11T20:56:33.765Z,100601.62
2022-10-11T20:59:01.445Z,100606.22
2022-10-11T21:01:34.554Z,100599.09
2022-10-11T21:04:02.679Z,100601.81
2022-10-11T21:06:31.108Z,100615.12
2022-10-11T21:08:59.415Z,100602.87
2022-10-11T21:11:28.511Z,100605.63
2022-10-11T21:13:57.039Z,100606.69
2022-10-11T21:16:25.171Z,100604.13
2022-10-11T21:18:54.363Z,100601.47
2022-10-11T21:21:23.788Z,100603.16
2022-10-11T21:23:55.482Z,100598.91
2022-10-11T21:26:23.081Z,100601.66
2022-10-11T21:28:50.451Z,100605.19
2022-10-11T21:31:19.693Z,100615.84
2022-10-11T21:33:47.280Z,100618.38
2022-10-11T21:36:17.123Z,100614.09
2022-10-11T21:38:44.638Z,100616.81
2022-10-11T21:41:15.500Z,100611.59
2022-10-11T21:43:42.978Z,100617.72
2022-10-11T21:46:20.364Z,100616.87
2022-10-11T21:48:49.932Z,100612.63
2022-10-11T21:51:27.745Z,100611.03
2022-10-11T21:53:57.411Z,100609.25
2022-10-11T21:56:24.686Z,100618.97
2022-10-11T21:58:51.981Z,100613.66
2022-10-11T22:01:21.242Z,100611.06
2022-10-11T22:03:48.896Z,100609.38
2022-10-11T22:06:16.878Z,100608.50
2022-10-11T22:08:44.322Z,100623.41
2022-10-11T22:11:12.131Z,100613.13
2022-10-11T22:13:39.387Z,100619.25
2022-10-11T22:16:09.280Z,100611.31
2022-10-11T22:18:37.258Z,100612.22
2022-10-11T22:21:07.003Z,100606.97
2022-10-11T22:23:34.587Z,100611.22
2022-10-11T22:26:07.001Z,100606.94
2022-10-11T22:28:35.008Z,100606.19
2022-10-11T22:31:05.188Z,100610.59
2022-10-11T22:33:32.841Z,100614.88
2022-10-11T22:36:02.063Z,100608.75
2022-10-11T22:38:29.749Z,100613.13
2022-10-11T22:40:59.830Z,100615.78
2022-10-11T22:43:27.204Z,100611.44
2022-10-11T22:45:54.769Z,100612.38
2022-10-11T22:48:22.132Z,100614.94
2022-10-11T22:50:49.466Z,100610.63
2022-10-11T22:53:17.084Z,100614.06
2022-10-11T22:55:44.629Z,100609.69
2022-10-11T22:58:11.962Z,100611.44
2022-10-11T23:00:39.594Z,100607.22
2022-10-11T23:03:09.619Z,100608.12
2022-10-11T23:05:36.938Z,100613.37
2022-10-11T23:08:05.845Z,100615.16
2022-10-11T23:10:33.132Z,100612.47
2022-10-11T23:13:00.424Z,100615.97
2022-10-11T23:15:27.984Z,100617.78
2022-10-11T23:17:55.279Z,100615.09
2022-10-11T23:20:22.558Z,100612.56
2022-10-11T23:22:50.115Z,100616.06
2022-10-11T23:25:17.389Z,100621.31
2022-10-11T23:27:44.659Z,100619.59
2022-10-11T23:30:12.947Z,100618.75
2022-10-11T23:32:40.254Z,100624.84
2022-10-11T23:35:08.052Z,100618.72
2022-10-11T23:37:35.975Z,100627.47
2022-10-11T23:40:04.144Z,100628.41
2022-10-11T23:42:31.432Z,100621.44
2022-10-11T23:44:59.220Z,100631.03
2022-10-11T23:47:26.500Z,100632.81
2022-10-11T23:49:53.802Z,100641.56
2022-10-11T23:52:21.484Z,100637.19
2022-10-11T23:54:48.866Z,100640.69
2022-10-11T23:57:16.224Z,100645.94
2022-10-11T23:59:43.787Z,100645.06
